createdAt,value
2023-01-06T00:07:02.795Z,101014.44
2023-01-06T00:21:54.059Z,101004.20
2023-01-06T00:36:45.256Z,101001.08
2023-01-06T00:51:37.261Z,100987.35
2023-01-06T01:06:29.557Z,100978.38
2023-01-06T01:21:20.459Z,100988.63
2023-01-06T01:36:11.436Z,100981.45
2023-01-06T01:51:03.535Z,100972.02
2023-01-06T02:05:55.551Z,100961.71
2023-01-06T02:20:58.443Z,100977.52
2023-01-06T02:36:14.746Z,100975.67
2023-01-06T02:51:22.359Z,100979.19
2023-01-06T03:06:20.023Z,100968.29
2023-01-06T03:21:17.303Z,100963.68
2023-01-06T03:36:15.894Z,100959.64
2023-01-06T03:51:36.788Z,100962.10
2023-01-06T04:06:33.886Z,100956.58
2023-01-06T04:21:26.268Z,100942.48
2023-01-06T04:36:17.767Z,100930.66
2023-01-06T04:51:09.487Z,100907.20
2023-01-06T05:06:00.407Z,100905.87
2023-01-06T05:20:51.453Z,100899.24
2023-01-06T05:36:01.886Z,100900.64
2023-01-06T05:50:53.537Z,100918.20
2023-01-06T06:05:44.908Z,100933.02
2023-01-06T06:20:36.674Z,100949.48
2023-01-06T06:35:27.974Z,100957.41
2023-01-06T06:50:19.184Z,100966.88
2023-01-06T07:05:10.290Z,100974.14
2023-01-06T07:20:01.603Z,100984.31
2023-01-06T07:34:52.423Z,100983.66
2023-01-06T07:49:43.605Z,100998.88
2023-01-06T08:04:35.830Z,101029.70
2023-01-06T08:19:27.517Z,101027.98
2023-01-06T08:34:19.451Z,101035.12
2023-01-06T08:49:10.669Z,101039.47
2023-01-06T09:04:02.392Z,101051.58
2023-01-06T09:18:54.501Z,101040.25
2023-01-06T09:33:46.097Z,101035.88
2023-01-06T09:48:37.665Z,101021.55
2023-01-06T10:03:29.241Z,101011.22
2023-01-06T10:18:26.333Z,101012.47
2023-01-06T10:33:23.260Z,101038.13
2023-01-06T10:48:19.547Z,101023.42
2023-01-06T11:03:32.436Z,101007.69
2023-01-06T11:18:05.909Z,101008.08
2023-01-06T11:32:57.622Z,100993.39
2023-01-06T11:47:48.172Z,100978.30
2023-01-06T12:02:43.181Z,100982.97
2023-01-06T12:17:40.099Z,100967.30
2023-01-06T12:32:33.306Z,100960.08
2023-01-06T12:47:32.799Z,100957.47
2023-01-06T13:02:47.712Z,100955.60
2023-01-06T13:18:00.948Z,100950.51
2023-01-06T13:33:02.324Z,100945.42
2023-01-06T13:47:56.569Z,100955.87
2023-01-06T14:02:49.912Z,100964.60
2023-01-06T14:17:43.616Z,100962.02
2023-01-06T14:32:36.546Z,100964.08
2023-01-06T14:47:29.582Z,100968.89
2023-01-06T15:02:20.647Z,100954.61
2023-01-06T15:17:10.686Z,100964.05
2023-01-06T15:32:01.196Z,100955.63
2023-01-06T15:46:51.486Z,100962.80
2023-01-06T16:01:54.013Z,100964.28
2023-01-06T16:16:48.862Z,100978.55
2023-01-06T16:31:40.162Z,100956.61
2023-01-06T16:46:31.007Z,100966.76
2023-01-06T17:01:21.631Z,100980.48
2023-01-06T17:16:12.264Z,100991.95
2023-01-06T17:31:03.340Z,101003.70
2023-01-06T17:45:54.478Z,101006.28
2023-01-06T18:00:44.527Z,101008.95
2023-01-06T18:15:34.079Z,101006.59
2023-01-06T18:30:25.375Z,101017.19
2023-01-06T18:45:15.456Z,101024.11
2023-01-06T19:00:31.327Z,101028.58
2023-01-06T19:15:23.226Z,101015.55
2023-01-06T19:30:17.275Z,101027.22
2023-01-06T19:45:08.204Z,101023.34
2023-01-06T19:59:59.703Z,101007.21
2023-01-06T20:14:51.447Z,100994.59
2023-01-06T20:29:44.505Z,100993.42
2023-01-06T20:44:37.158Z,100994.57
2023-01-06T20:59:28.640Z,100986.83
2023-01-06T21:14:19.364Z,100983.83
2023-01-06T21:29:09.667Z,100966.21
2023-01-06T21:58:51.294Z,100954.41
2023-01-06T22:13:41.986Z,100942.36
2023-01-06T22:28:32.445Z,100925.86
2023-01-06T22:43:23.215Z,100930.67
2023-01-06T22:58:13.729Z,100919.99
2023-01-06T23:13:06.754Z,100915.88
2023-01-06T23:27:56.684Z,100918.66
2023-01-06T23:42:48.870Z,100913.02
2023-01-06T23:57:38.116Z,100911.27
